sensor_id;sensor_type;location;lat;lon;timestamp;P1;durP1;ratioP1;P2;durP2;ratioP2
78143;SDS011;67394;52.522;13.622;2023-02-03T00:02:25;9.85;;;4.43;;
78143;SDS011;67394;52.522;13.622;2023-02-03T00:04:51;9.23;;;4.65;;
78143;SDS011;67394;52.522;13.622;2023-02-03T00:07:18;8.52;;;3.95;;
78143;SDS011;67394;52.522;13.622;2023-02-03T00:09:44;9.18;;;4.13;;
78143;SDS011;67394;52.522;13.622;2023-02-03T00:12:11;7.57;;;4.22;;
78143;SDS011;67394;52.522;13.622;2023-02-03T00:14:37;8.30;;;4.30;;
78143;SDS011;67394;52.522;13.622;2023-02-03T00:17:03;8.43;;;3.80;;
78143;SDS011;67394;52.522;13.622;2023-02-03T00:19:30;8.85;;;3.97;;
78143;SDS011;67394;52.522;13.622;2023-02-03T00:21:57;8.35;;;4.45;;
78143;SDS011;67394;52.522;13.622;2023-02-03T00:24:23;7.85;;;4.18;;
78143;SDS011;67394;52.522;13.622;2023-02-03T00:26:49;8.38;;;3.40;;
78143;SDS011;67394;52.522;13.622;2023-02-03T00:29:16;10.30;;;4.05;;
78143;SDS011;67394;52.522;13.622;2023-02-03T00:31:42;6.20;;;3.25;;
78143;SDS011;67394;52.522;13.622;2023-02-03T00:34:08;9.20;;;4.18;;
78143;SDS011;67394;52.522;13.622;2023-02-03T00:36:35;7.90;;;3.83;;
78143;SDS011;67394;52.522;13.622;2023-02-03T00:39:01;7.28;;;3.80;;
78143;SDS011;67394;52.522;13.622;2023-02-03T00:41:28;8.38;;;3.45;;
78143;SDS011;67394;52.522;13.622;2023-02-03T00:43:56;7.38;;;3.55;;
78143;SDS011;67394;52.522;13.622;2023-02-03T00:46:22;7.75;;;3.60;;
78143;SDS011;67394;52.522;13.622;2023-02-03T00:48:48;13.57;;;4.88;;
78143;SDS011;67394;52.522;13.622;2023-02-03T00:51:15;8.38;;;3.83;;
78143;SDS011;67394;52.522;13.622;2023-02-03T00:53:41;8.90;;;3.38;;
78143;SDS011;67394;52.522;13.622;2023-02-03T00:56:07;6.60;;;3.67;;
78143;SDS011;67394;52.522;13.622;2023-02-03T00:58:34;9.90;;;3.33;;
78143;SDS011;67394;52.522;13.622;2023-02-03T01:01:00;9.07;;;3.72;;
78143;SDS011;67394;52.522;13.622;2023-02-03T01:03:26;9.93;;;4.35;;
78143;SDS011;67394;52.522;13.622;2023-02-03T01:05:53;11.45;;;4.53;;
78143;SDS011;67394;52.522;13.622;2023-02-03T01:08:19;7.63;;;3.83;;
78143;SDS011;67394;52.522;13.622;2023-02-03T01:10:45;10.70;;;5.07;;
78143;SDS011;67394;52.522;13.622;2023-02-03T01:13:12;10.73;;;5.05;;
78143;SDS011;67394;52.522;13.622;2023-02-03T01:15:43;10.43;;;4.63;;
78143;SDS011;67394;52.522;13.622;2023-02-03T01:18:10;12.48;;;4.80;;
78143;SDS011;67394;52.522;13.622;2023-02-03T01:20:37;11.80;;;4.82;;
78143;SDS011;67394;52.522;13.622;2023-02-03T01:23:03;11.60;;;4.72;;
78143;SDS011;67394;52.522;13.622;2023-02-03T01:25:29;9.82;;;4.50;;
78143;SDS011;67394;52.522;13.622;2023-02-03T01:27:56;11.57;;;4.97;;
78143;SDS011;67394;52.522;13.622;2023-02-03T01:30:22;11.48;;;5.50;;
78143;SDS011;67394;52.522;13.622;2023-02-03T01:32:49;10.90;;;5.50;;
78143;SDS011;67394;52.522;13.622;2023-02-03T01:35:15;16.90;;;5.85;;
78143;SDS011;67394;52.522;13.622;2023-02-03T01:37:41;11.55;;;5.63;;
78143;SDS011;67394;52.522;13.622;2023-02-03T01:40:08;10.82;;;5.97;;
78143;SDS011;67394;52.522;13.622;2023-02-03T01:42:35;10.55;;;5.53;;
78143;SDS011;67394;52.522;13.622;2023-02-03T01:45:01;22.35;;;6.05;;
78143;SDS011;67394;52.522;13.622;2023-02-03T01:47:45;14.15;;;5.97;;
78143;SDS011;67394;52.522;13.622;2023-02-03T01:50:16;12.20;;;5.88;;
78143;SDS011;67394;52.522;13.622;2023-02-03T01:52:48;10.65;;;5.85;;
78143;SDS011;67394;52.522;13.622;2023-02-03T01:55:19;9.93;;;5.78;;
78143;SDS011;67394;52.522;13.622;2023-02-03T01:57:52;13.10;;;5.97;;
78143;SDS011;67394;52.522;13.622;2023-02-03T02:00:23;11.77;;;5.40;;
78143;SDS011;67394;52.522;13.622;2023-02-03T02:02:50;10.95;;;5.03;;
78143;SDS011;67394;52.522;13.622;2023-02-03T02:05:30;11.63;;;5.75;;
78143;SDS011;67394;52.522;13.622;2023-02-03T02:08:00;13.30;;;6.18;;
78143;SDS011;67394;52.522;13.622;2023-02-03T02:10:28;14.35;;;6.22;;
78143;SDS011;67394;52.522;13.622;2023-02-03T02:12:56;14.70;;;6.30;;
78143;SDS011;67394;52.522;13.622;2023-02-03T02:15:27;13.65;;;6.10;;
78143;SDS011;67394;52.522;13.622;2023-02-03T02:23:49;13.05;;;6.40;;
78143;SDS011;67394;52.522;13.622;2023-02-03T02:29:02;11.20;;;6.00;;
78143;SDS011;67394;52.522;13.622;2023-02-03T02:37:30;9.63;;;5.40;;
78143;SDS011;67394;52.522;13.622;2023-02-03T02:40:06;10.07;;;5.90;;
78143;SDS011;67394;52.522;13.622;2023-02-03T02:45:43;10.48;;;5.30;;
78143;SDS011;67394;52.522;13.622;2023-02-03T02:48:16;8.50;;;5.15;;
78143;SDS011;67394;52.522;13.622;2023-02-03T02:50:55;11.13;;;5.85;;
78143;SDS011;67394;52.522;13.622;2023-02-03T02:53:24;10.38;;;6.13;;
78143;SDS011;67394;52.522;13.622;2023-02-03T02:55:54;7.72;;;4.90;;
78143;SDS011;67394;52.522;13.622;2023-02-03T02:58:22;8.73;;;5.15;;
78143;SDS011;67394;52.522;13.622;2023-02-03T03:00:49;7.93;;;4.85;;
78143;SDS011;67394;52.522;13.622;2023-02-03T03:03:20;8.13;;;4.88;;
78143;SDS011;67394;52.522;13.622;2023-02-03T03:05:52;7.50;;;4.30;;
78143;SDS011;67394;52.522;13.622;2023-02-03T03:08:28;7.70;;;4.18;;
78143;SDS011;67394;52.522;13.622;2023-02-03T03:10:58;8.57;;;4.35;;
78143;SDS011;67394;52.522;13.622;2023-02-03T03:13:29;6.55;;;3.95;;
78143;SDS011;67394;52.522;13.622;2023-02-03T03:16:01;7.25;;;4.00;;
78143;SDS011;67394;52.522;13.622;2023-02-03T03:18:32;7.85;;;4.35;;
78143;SDS011;67394;52.522;13.622;2023-02-03T03:21:03;6.25;;;4.28;;
78143;SDS011;67394;52.522;13.622;2023-02-03T03:23:34;8.45;;;4.13;;
78143;SDS011;67394;52.522;13.622;2023-02-03T03:28:49;7.05;;;4.32;;
78143;SDS011;67394;52.522;13.622;2023-02-03T03:31:19;8.10;;;3.97;;
78143;SDS011;67394;52.522;13.622;2023-02-03T03:33:46;8.25;;;4.00;;
78143;SDS011;67394;52.522;13.622;2023-02-03T03:39:11;10.02;;;4.57;;
78143;SDS011;67394;52.522;13.622;2023-02-03T03:41:59;6.65;;;4.00;;
78143;SDS011;67394;52.522;13.622;2023-02-03T03:44:34;6.93;;;3.53;;
78143;SDS011;67394;52.522;13.622;2023-02-03T03:47:11;6.03;;;3.63;;
78143;SDS011;67394;52.522;13.622;2023-02-03T03:49:44;6.60;;;3.90;;
78143;SDS011;67394;52.522;13.622;2023-02-03T03:52:14;7.00;;;3.45;;
78143;SDS011;67394;52.522;13.622;2023-02-03T03:54:46;5.63;;;3.22;;
78143;SDS011;67394;52.522;13.622;2023-02-03T03:57:17;7.07;;;4.07;;
78143;SDS011;67394;52.522;13.622;2023-02-03T03:59:46;6.32;;;3.47;;
78143;SDS011;67394;52.522;13.622;2023-02-03T04:02:15;5.55;;;3.35;;
78143;SDS011;67394;52.522;13.622;2023-02-03T04:04:43;7.30;;;4.15;;
78143;SDS011;67394;52.522;13.622;2023-02-03T04:09:40;8.68;;;4.38;;
78143;SDS011;67394;52.522;13.622;2023-02-03T04:12:22;7.80;;;4.07;;
78143;SDS011;67394;52.522;13.622;2023-02-03T04:14:49;5.80;;;3.58;;
78143;SDS011;67394;52.522;13.622;2023-02-03T04:17:15;6.53;;;4.03;;
78143;SDS011;67394;52.522;13.622;2023-02-03T04:19:42;6.68;;;3.70;;
78143;SDS011;67394;52.522;13.622;2023-02-03T04:22:08;6.35;;;4.28;;
78143;SDS011;67394;52.522;13.622;2023-02-03T04:24:34;10.00;;;4.82;;
78143;SDS011;67394;52.522;13.622;2023-02-03T04:27:01;7.95;;;4.93;;
78143;SDS011;67394;52.522;13.622;2023-02-03T04:29:30;7.03;;;4.18;;
78143;SDS011;67394;52.522;13.622;2023-02-03T04:31:56;7.55;;;4.47;;
78143;SDS011;67394;52.522;13.622;2023-02-03T04:34:23;6.38;;;4.03;;
78143;SDS011;67394;52.522;13.622;2023-02-03T04:36:49;8.45;;;4.25;;
78143;SDS011;67394;52.522;13.622;2023-02-03T04:39:15;6.28;;;4.38;;
78143;SDS011;67394;52.522;13.622;2023-02-03T04:41:42;6.07;;;4.05;;
78143;SDS011;67394;52.522;13.622;2023-02-03T04:44:08;7.15;;;4.65;;
78143;SDS011;67394;52.522;13.622;2023-02-03T04:46:34;10.07;;;4.65;;
78143;SDS011;67394;52.522;13.622;2023-02-03T04:49:01;8.52;;;5.25;;
78143;SDS011;67394;52.522;13.622;2023-02-03T04:51:27;8.23;;;5.40;;
78143;SDS011;67394;52.522;13.622;2023-02-03T04:53:53;9.90;;;5.53;;
78143;SDS011;67394;52.522;13.622;2023-02-03T04:56:24;10.27;;;5.15;;
78143;SDS011;67394;52.522;13.622;2023-02-03T04:58:50;9.52;;;5.45;;
78143;SDS011;67394;52.522;13.622;2023-02-03T05:01:16;10.93;;;5.70;;
78143;SDS011;67394;52.522;13.622;2023-02-03T05:03:43;12.40;;;6.30;;
78143;SDS011;67394;52.522;13.622;2023-02-03T05:06:09;12.90;;;6.35;;
78143;SDS011;67394;52.522;13.622;2023-02-03T05:08:35;14.93;;;7.43;;
78143;SDS011;67394;52.522;13.622;2023-02-03T05:11:02;14.65;;;7.05;;
78143;SDS011;67394;52.522;13.622;2023-02-03T05:13:30;16.33;;;7.68;;
78143;SDS011;67394;52.522;13.622;2023-02-03T05:15:57;17.13;;;8.35;;
78143;SDS011;67394;52.522;13.622;2023-02-03T05:18:23;14.07;;;7.95;;
78143;SDS011;67394;52.522;13.622;2023-02-03T05:20:49;15.88;;;7.57;;
78143;SDS011;67394;52.522;13.622;2023-02-03T05:23:16;15.95;;;8.57;;
78143;SDS011;67394;52.522;13.622;2023-02-03T05:25:42;15.23;;;7.70;;
78143;SDS011;67394;52.522;13.622;2023-02-03T05:28:09;21.20;;;8.82;;
78143;SDS011;67394;52.522;13.622;2023-02-03T05:30:35;17.48;;;8.98;;
78143;SDS011;67394;52.522;13.622;2023-02-03T05:33:02;19.02;;;8.75;;
78143;SDS011;67394;52.522;13.622;2023-02-03T05:35:28;26.98;;;9.43;;
78143;SDS011;67394;52.522;13.622;2023-02-03T05:37:55;22.00;;;9.75;;
78143;SDS011;67394;52.522;13.622;2023-02-03T05:40:21;21.05;;;10.70;;
78143;SDS011;67394;52.522;13.622;2023-02-03T05:42:48;28.13;;;11.60;;
78143;SDS011;67394;52.522;13.622;2023-02-03T05:45:15;27.08;;;11.88;;
78143;SDS011;67394;52.522;13.622;2023-02-03T05:47:41;28.75;;;11.20;;
78143;SDS011;67394;52.522;13.622;2023-02-03T05:50:08;33.20;;;13.20;;
78143;SDS011;67394;52.522;13.622;2023-02-03T05:52:34;35.15;;;13.63;;
78143;SDS011;67394;52.522;13.622;2023-02-03T05:55:01;43.20;;;14.85;;
78143;SDS011;67394;52.522;13.622;2023-02-03T05:57:27;41.63;;;15.02;;
78143;SDS011;67394;52.522;13.622;2023-02-03T05:59:55;41.58;;;14.02;;
78143;SDS011;67394;52.522;13.622;2023-02-03T06:02:22;54.92;;;16.48;;
78143;SDS011;67394;52.522;13.622;2023-02-03T06:04:48;55.60;;;16.33;;
78143;SDS011;67394;52.522;13.622;2023-02-03T06:07:14;54.28;;;17.48;;
78143;SDS011;67394;52.522;13.622;2023-02-03T06:09:41;49.17;;;16.70;;
78143;SDS011;67394;52.522;13.622;2023-02-03T06:12:07;43.80;;;15.35;;
78143;SDS011;67394;52.522;13.622;2023-02-03T06:14:33;47.13;;;16.95;;
78143;SDS011;67394;52.522;13.622;2023-02-03T06:17:00;55.45;;;16.70;;
78143;SDS011;67394;52.522;13.622;2023-02-03T06:19:26;54.10;;;16.88;;
78143;SDS011;67394;52.522;13.622;2023-02-03T06:21:52;48.90;;;17.70;;
78143;SDS011;67394;52.522;13.622;2023-02-03T06:24:19;48.42;;;17.17;;
78143;SDS011;67394;52.522;13.622;2023-02-03T06:26:45;51.70;;;17.38;;
78143;SDS011;67394;52.522;13.622;2023-02-03T06:29:11;69.53;;;24.50;;
78143;SDS011;67394;52.522;13.622;2023-02-03T06:31:38;60.47;;;19.70;;
78143;SDS011;67394;52.522;13.622;2023-02-03T06:34:04;66.13;;;20.50;;
78143;SDS011;67394;52.522;13.622;2023-02-03T06:36:31;67.05;;;19.77;;
78143;SDS011;67394;52.522;13.622;2023-02-03T06:38:57;66.40;;;19.15;;
78143;SDS011;67394;52.522;13.622;2023-02-03T06:41:23;63.75;;;20.02;;
78143;SDS011;67394;52.522;13.622;2023-02-03T06:43:50;60.08;;;18.80;;
78143;SDS011;67394;52.522;13.622;2023-02-03T06:46:16;76.22;;;22.92;;
78143;SDS011;67394;52.522;13.622;2023-02-03T06:48:42;72.82;;;23.08;;
78143;SDS011;67394;52.522;13.622;2023-02-03T06:51:09;57.17;;;21.05;;
78143;SDS011;67394;52.522;13.622;2023-02-03T06:53:35;54.60;;;19.75;;
78143;SDS011;67394;52.522;13.622;2023-02-03T06:56:01;75.00;;;21.85;;
78143;SDS011;67394;52.522;13.622;2023-02-03T06:58:28;77.97;;;21.98;;
78143;SDS011;67394;52.522;13.622;2023-02-03T07:00:54;82.07;;;24.38;;
78143;SDS011;67394;52.522;13.622;2023-02-03T07:05:48;51.88;;;20.52;;
78143;SDS011;67394;52.522;13.622;2023-02-03T07:08:14;48.08;;;19.48;;
78143;SDS011;67394;52.522;13.622;2023-02-03T07:10:40;62.03;;;21.02;;
78143;SDS011;67394;52.522;13.622;2023-02-03T07:13:07;57.65;;;19.88;;
78143;SDS011;67394;52.522;13.622;2023-02-03T07:15:34;45.88;;;18.77;;
78143;SDS011;67394;52.522;13.622;2023-02-03T07:18:00;46.60;;;19.60;;
78143;SDS011;67394;52.522;13.622;2023-02-03T07:20:27;37.05;;;17.17;;
78143;SDS011;67394;52.522;13.622;2023-02-03T07:22:54;36.35;;;17.02;;
78143;SDS011;67394;52.522;13.622;2023-02-03T07:25:22;40.58;;;18.15;;
78143;SDS011;67394;52.522;13.622;2023-02-03T07:27:49;38.38;;;17.75;;
78143;SDS011;67394;52.522;13.622;2023-02-03T07:30:16;33.70;;;16.55;;
78143;SDS011;67394;52.522;13.622;2023-02-03T07:32:49;33.22;;;15.20;;
78143;SDS011;67394;52.522;13.622;2023-02-03T07:35:17;31.75;;;15.48;;
78143;SDS011;67394;52.522;13.622;2023-02-03T07:37:43;31.55;;;16.00;;
78143;SDS011;67394;52.522;13.622;2023-02-03T07:40:10;31.65;;;15.70;;
78143;SDS011;67394;52.522;13.622;2023-02-03T07:42:44;29.75;;;15.43;;
78143;SDS011;67394;52.522;13.622;2023-02-03T07:45:13;28.73;;;16.60;;
78143;SDS011;67394;52.522;13.622;2023-02-03T07:47:43;30.98;;;15.95;;
78143;SDS011;67394;52.522;13.622;2023-02-03T07:50:10;25.10;;;14.52;;
78143;SDS011;67394;52.522;13.622;2023-02-03T07:52:37;27.00;;;14.55;;
78143;SDS011;67394;52.522;13.622;2023-02-03T07:55:04;30.15;;;14.93;;
78143;SDS011;67394;52.522;13.622;2023-02-03T07:57:31;23.98;;;13.75;;
78143;SDS011;67394;52.522;13.622;2023-02-03T07:59:57;24.85;;;14.10;;
78143;SDS011;67394;52.522;13.622;2023-02-03T08:02:23;18.08;;;11.32;;
78143;SDS011;67394;52.522;13.622;2023-02-03T08:04:50;22.67;;;12.98;;
78143;SDS011;67394;52.522;13.622;2023-02-03T08:07:16;20.88;;;12.35;;
78143;SDS011;67394;52.522;13.622;2023-02-03T08:09:42;22.27;;;11.63;;
78143;SDS011;67394;52.522;13.622;2023-02-03T08:12:09;15.52;;;9.68;;
78143;SDS011;67394;52.522;13.622;2023-02-03T08:14:35;20.73;;;11.48;;
78143;SDS011;67394;52.522;13.622;2023-02-03T08:17:01;17.73;;;10.57;;
78143;SDS011;67394;52.522;13.622;2023-02-03T08:19:28;15.82;;;9.93;;
78143;SDS011;67394;52.522;13.622;2023-02-03T08:21:54;17.83;;;10.82;;
78143;SDS011;67394;52.522;13.622;2023-02-03T08:24:21;21.98;;;13.15;;
78143;SDS011;67394;52.522;13.622;2023-02-03T08:26:47;18.40;;;11.40;;
78143;SDS011;67394;52.522;13.622;2023-02-03T08:29:13;16.45;;;9.98;;
78143;SDS011;67394;52.522;13.622;2023-02-03T08:31:40;12.90;;;8.85;;
78143;SDS011;67394;52.522;13.622;2023-02-03T08:34:07;18.55;;;10.07;;
78143;SDS011;67394;52.522;13.622;2023-02-03T08:36:33;14.88;;;9.63;;
78143;SDS011;67394;52.522;13.622;2023-02-03T08:39:00;15.15;;;9.32;;
78143;SDS011;67394;52.522;13.622;2023-02-03T08:41:26;15.82;;;9.10;;
78143;SDS011;67394;52.522;13.622;2023-02-03T08:43:52;18.05;;;9.23;;
78143;SDS011;67394;52.522;13.622;2023-02-03T08:46:19;18.00;;;9.75;;
78143;SDS011;67394;52.522;13.622;2023-02-03T08:48:47;16.10;;;9.38;;
78143;SDS011;67394;52.522;13.622;2023-02-03T08:51:15;15.20;;;8.48;;
78143;SDS011;67394;52.522;13.622;2023-02-03T08:53:42;16.17;;;8.18;;
78143;SDS011;67394;52.522;13.622;2023-02-03T08:56:09;12.63;;;8.73;;
78143;SDS011;67394;52.522;13.622;2023-02-03T08:58:36;13.90;;;8.48;;
78143;SDS011;67394;52.522;13.622;2023-02-03T09:03:33;11.75;;;7.28;;
78143;SDS011;67394;52.522;13.622;2023-02-03T09:05:59;12.35;;;8.55;;
78143;SDS011;67394;52.522;13.622;2023-02-03T09:08:26;11.18;;;7.63;;
78143;SDS011;67394;52.522;13.622;2023-02-03T09:10:53;12.88;;;8.13;;
78143;SDS011;67394;52.522;13.622;2023-02-03T09:13:19;12.43;;;7.85;;
78143;SDS011;67394;52.522;13.622;2023-02-03T09:15:46;12.10;;;7.85;;
78143;SDS011;67394;52.522;13.622;2023-02-03T09:18:12;11.93;;;7.25;;
78143;SDS011;67394;52.522;13.622;2023-02-03T09:20:39;9.25;;;6.07;;
78143;SDS011;67394;52.522;13.622;2023-02-03T09:23:05;9.13;;;6.68;;
78143;SDS011;67394;52.522;13.622;2023-02-03T09:25:31;10.10;;;5.72;;
78143;SDS011;67394;52.522;13.622;2023-02-03T09:28:00;8.05;;;5.88;;
78143;SDS011;67394;52.522;13.622;2023-02-03T09:30:27;13.35;;;7.05;;
78143;SDS011;67394;52.522;13.622;2023-02-03T09:32:54;9.13;;;5.25;;
78143;SDS011;67394;52.522;13.622;2023-02-03T09:35:20;9.48;;;5.25;;
78143;SDS011;67394;52.522;13.622;2023-02-03T09:37:47;9.82;;;5.78;;
78143;SDS011;67394;52.522;13.622;2023-02-03T09:40:17;7.18;;;5.10;;
78143;SDS011;67394;52.522;13.622;2023-02-03T09:45:34;8.18;;;5.32;;
78143;SDS011;67394;52.522;13.622;2023-02-03T09:48:05;6.57;;;4.82;;
78143;SDS011;67394;52.522;13.622;2023-02-03T09:50:39;8.60;;;4.85;;
78143;SDS011;67394;52.522;13.622;2023-02-03T09:53:13;7.70;;;5.50;;
78143;SDS011;67394;52.522;13.622;2023-02-03T09:55:49;7.03;;;4.65;;
78143;SDS011;67394;52.522;13.622;2023-02-03T09:58:16;6.93;;;5.07;;
78143;SDS011;67394;52.522;13.622;2023-02-03T10:00:57;7.22;;;4.57;;
78143;SDS011;67394;52.522;13.622;2023-02-03T10:06:34;6.97;;;4.35;;
78143;SDS011;67394;52.522;13.622;2023-02-03T10:12:15;6.88;;;4.70;;
78143;SDS011;67394;52.522;13.622;2023-02-03T10:14:52;5.55;;;3.60;;
78143;SDS011;67394;52.522;13.622;2023-02-03T10:17:28;5.72;;;3.95;;
78143;SDS011;67394;52.522;13.622;2023-02-03T10:20:03;6.22;;;4.30;;
78143;SDS011;67394;52.522;13.622;2023-02-03T10:22:38;6.38;;;4.45;;
78143;SDS011;67394;52.522;13.622;2023-02-03T10:25:15;5.68;;;4.22;;
78143;SDS011;67394;52.522;13.622;2023-02-03T10:27:45;6.13;;;4.82;;
78143;SDS011;67394;52.522;13.622;2023-02-03T10:30:18;6.10;;;4.43;;
78143;SDS011;67394;52.522;13.622;2023-02-03T10:33:12;5.20;;;4.05;;
78143;SDS011;67394;52.522;13.622;2023-02-03T10:38:51;5.18;;;3.65;;
78143;SDS011;67394;52.522;13.622;2023-02-03T10:41:18;4.93;;;3.50;;
78143;SDS011;67394;52.522;13.622;2023-02-03T10:43:46;5.22;;;3.20;;
78143;SDS011;67394;52.522;13.622;2023-02-03T10:46:15;6.65;;;3.15;;
78143;SDS011;67394;52.522;13.622;2023-02-03T10:48:44;4.78;;;2.22;;
78143;SDS011;67394;52.522;13.622;2023-02-03T10:51:18;4.18;;;1.40;;
78143;SDS011;67394;52.522;13.622;2023-02-03T10:53:50;4.40;;;1.90;;
78143;SDS011;67394;52.522;13.622;2023-02-03T10:56:19;5.05;;;1.70;;
78143;SDS011;67394;52.522;13.622;2023-02-03T10:58:50;6.00;;;1.67;;
78143;SDS011;67394;52.522;13.622;2023-02-03T11:01:19;10.10;;;2.20;;
78143;SDS011;67394;52.522;13.622;2023-02-03T11:06:26;5.10;;;1.40;;
78143;SDS011;67394;52.522;13.622;2023-02-03T11:08:53;6.55;;;2.08;;
78143;SDS011;67394;52.522;13.622;2023-02-03T11:11:25;7.97;;;2.08;;
78143;SDS011;67394;52.522;13.622;2023-02-03T11:16:25;9.70;;;1.65;;
78143;SDS011;67394;52.522;13.622;2023-02-03T11:18:56;6.82;;;1.83;;
78143;SDS011;67394;52.522;13.622;2023-02-03T11:21:24;9.50;;;3.60;;
78143;SDS011;67394;52.522;13.622;2023-02-03T11:24:00;8.25;;;2.75;;
78143;SDS011;67394;52.522;13.622;2023-02-03T11:26:34;9.98;;;3.42;;
78143;SDS011;67394;52.522;13.622;2023-02-03T11:29:24;7.55;;;2.65;;
78143;SDS011;67394;52.522;13.622;2023-02-03T11:31:52;7.93;;;2.03;;
78143;SDS011;67394;52.522;13.622;2023-02-03T11:34:30;9.70;;;2.55;;
78143;SDS011;67394;52.522;13.622;2023-02-03T11:55:58;13.13;;;2.58;;
78143;SDS011;67394;52.522;13.622;2023-02-03T11:58:45;7.50;;;1.80;;
78143;SDS011;67394;52.522;13.622;2023-02-03T12:09:59;8.25;;;2.08;;
78143;SDS011;67394;52.522;13.622;2023-02-03T12:12:55;13.27;;;3.10;;
78143;SDS011;67394;52.522;13.622;2023-02-03T12:15:45;10.95;;;2.60;;
78143;SDS011;67394;52.522;13.622;2023-02-03T12:29:37;10.18;;;2.95;;
78143;SDS011;67394;52.522;13.622;2023-02-03T12:32:19;12.82;;;2.88;;
78143;SDS011;67394;52.522;13.622;2023-02-03T12:35:14;11.73;;;2.70;;
78143;SDS011;67394;52.522;13.622;2023-02-03T12:40:43;11.63;;;2.45;;
78143;SDS011;67394;52.522;13.622;2023-02-03T12:48:45;13.80;;;3.28;;
78143;SDS011;67394;52.522;13.622;2023-02-03T12:56:54;9.63;;;2.33;;
78143;SDS011;67394;52.522;13.622;2023-02-03T12:59:26;5.72;;;1.50;;
78143;SDS011;67394;52.522;13.622;2023-02-03T13:01:58;4.88;;;1.02;;
78143;SDS011;67394;52.522;13.622;2023-02-03T13:04:37;7.15;;;1.67;;
78143;SDS011;67394;52.522;13.622;2023-02-03T13:09:48;2.90;;;1.17;;
78143;SDS011;67394;52.522;13.622;2023-02-03T13:12:34;7.03;;;2.28;;
78143;SDS011;67394;52.522;13.622;2023-02-03T13:17:41;10.48;;;2.33;;
78143;SDS011;67394;52.522;13.622;2023-02-03T13:20:19;7.80;;;2.05;;
78143;SDS011;67394;52.522;13.622;2023-02-03T13:22:49;13.18;;;3.45;;
78143;SDS011;67394;52.522;13.622;2023-02-03T13:37:23;10.50;;;2.60;;
78143;SDS011;67394;52.522;13.622;2023-02-03T13:42:52;8.45;;;2.67;;
78143;SDS011;67394;52.522;13.622;2023-02-03T13:48:07;10.38;;;2.40;;
78143;SDS011;67394;52.522;13.622;2023-02-03T13:50:34;8.85;;;2.50;;
78143;SDS011;67394;52.522;13.622;2023-02-03T13:53:20;9.85;;;2.50;;
78143;SDS011;67394;52.522;13.622;2023-02-03T13:55:56;12.02;;;2.63;;
78143;SDS011;67394;52.522;13.622;2023-02-03T14:05:52;15.95;;;3.72;;
78143;SDS011;67394;52.522;13.622;2023-02-03T14:16:35;14.05;;;4.32;;
78143;SDS011;67394;52.522;13.622;2023-02-03T14:19:03;12.65;;;3.10;;
78143;SDS011;67394;52.522;13.622;2023-02-03T14:21:44;12.45;;;4.05;;
78143;SDS011;67394;52.522;13.622;2023-02-03T14:24:20;10.60;;;3.03;;
78143;SDS011;67394;52.522;13.622;2023-02-03T14:26:49;12.25;;;3.25;;
78143;SDS011;67394;52.522;13.622;2023-02-03T14:29:25;12.18;;;3.45;;
78143;SDS011;67394;52.522;13.622;2023-02-03T14:34:30;10.50;;;2.80;;
78143;SDS011;67394;52.522;13.622;2023-02-03T14:37:16;20.45;;;3.25;;
78143;SDS011;67394;52.522;13.622;2023-02-03T14:48:18;19.15;;;3.45;;
78143;SDS011;67394;52.522;13.622;2023-02-03T14:50:56;11.00;;;2.65;;
78143;SDS011;67394;52.522;13.622;2023-02-03T14:56:30;19.80;;;3.72;;
78143;SDS011;67394;52.522;13.622;2023-02-03T14:59:10;16.83;;;3.67;;
78143;SDS011;67394;52.522;13.622;2023-02-03T15:12:18;18.90;;;4.65;;
78143;SDS011;67394;52.522;13.622;2023-02-03T15:14:49;12.60;;;2.83;;
78143;SDS011;67394;52.522;13.622;2023-02-03T15:17:22;16.27;;;3.60;;
78143;SDS011;67394;52.522;13.622;2023-02-03T15:19:49;15.98;;;3.50;;
78143;SDS011;67394;52.522;13.622;2023-02-03T15:24:50;13.02;;;3.13;;
78143;SDS011;67394;52.522;13.622;2023-02-03T15:27:19;18.23;;;4.78;;
78143;SDS011;67394;52.522;13.622;2023-02-03T15:29:50;14.48;;;2.92;;
78143;SDS011;67394;52.522;13.622;2023-02-03T15:35:06;16.73;;;4.78;;
78143;SDS011;67394;52.522;13.622;2023-02-03T15:37:45;22.05;;;5.53;;
78143;SDS011;67394;52.522;13.622;2023-02-03T15:40:18;17.45;;;5.93;;
78143;SDS011;67394;52.522;13.622;2023-02-03T15:42:57;26.40;;;5.45;;
78143;SDS011;67394;52.522;13.622;2023-02-03T15:53:19;14.93;;;3.25;;
78143;SDS011;67394;52.522;13.622;2023-02-03T15:56:02;13.57;;;3.63;;
78143;SDS011;67394;52.522;13.622;2023-02-03T15:58:31;13.30;;;2.97;;
78143;SDS011;67394;52.522;13.622;2023-02-03T16:01:20;10.52;;;3.22;;
78143;SDS011;67394;52.522;13.622;2023-02-03T16:03:49;11.23;;;4.53;;
78143;SDS011;67394;52.522;13.622;2023-02-03T16:06:36;12.38;;;3.42;;
78143;SDS011;67394;52.522;13.622;2023-02-03T16:09:04;14.32;;;3.40;;
78143;SDS011;67394;52.522;13.622;2023-02-03T16:11:33;13.55;;;3.22;;
78143;SDS011;67394;52.522;13.622;2023-02-03T16:14:04;16.92;;;3.55;;
78143;SDS011;67394;52.522;13.622;2023-02-03T16:16:39;15.20;;;3.78;;
78143;SDS011;67394;52.522;13.622;2023-02-03T16:19:28;14.85;;;3.45;;
78143;SDS011;67394;52.522;13.622;2023-02-03T16:21:56;8.23;;;3.13;;
78143;SDS011;67394;52.522;13.622;2023-02-03T16:24:40;15.05;;;3.40;;
78143;SDS011;67394;52.522;13.622;2023-02-03T16:29:52;6.65;;;2.05;;
78143;SDS011;67394;52.522;13.622;2023-02-03T16:32:19;16.33;;;3.10;;
78143;SDS011;67394;52.522;13.622;2023-02-03T16:34:46;9.85;;;2.50;;
78143;SDS011;67394;52.522;13.622;2023-02-03T16:37:15;9.63;;;3.90;;
78143;SDS011;67394;52.522;13.622;2023-02-03T16:39:48;12.55;;;3.38;;
78143;SDS011;67394;52.522;13.622;2023-02-03T16:42:17;11.60;;;3.70;;
78143;SDS011;67394;52.522;13.622;2023-02-03T16:44:45;18.20;;;3.00;;
78143;SDS011;67394;52.522;13.622;2023-02-03T16:47:30;14.70;;;3.28;;
78143;SDS011;67394;52.522;13.622;2023-02-03T16:49:57;19.23;;;4.55;;
78143;SDS011;67394;52.522;13.622;2023-02-03T16:52:23;13.95;;;3.03;;
78143;SDS011;67394;52.522;13.622;2023-02-03T16:54:50;16.42;;;3.75;;
78143;SDS011;67394;52.522;13.622;2023-02-03T16:57:16;10.13;;;2.88;;
78143;SDS011;67394;52.522;13.622;2023-02-03T16:59:42;14.07;;;3.58;;
78143;SDS011;67394;52.522;13.622;2023-02-03T17:02:09;10.52;;;3.35;;
78143;SDS011;67394;52.522;13.622;2023-02-03T17:04:36;16.90;;;3.35;;
78143;SDS011;67394;52.522;13.622;2023-02-03T17:07:02;16.10;;;3.30;;
78143;SDS011;67394;52.522;13.622;2023-02-03T17:09:28;9.93;;;2.97;;
78143;SDS011;67394;52.522;13.622;2023-02-03T17:11:55;9.48;;;2.70;;
78143;SDS011;67394;52.522;13.622;2023-02-03T17:14:21;11.35;;;3.22;;
78143;SDS011;67394;52.522;13.622;2023-02-03T17:16:47;17.05;;;4.13;;
78143;SDS011;67394;52.522;13.622;2023-02-03T17:19:14;9.65;;;2.65;;
78143;SDS011;67394;52.522;13.622;2023-02-03T17:21:40;14.60;;;3.50;;
78143;SDS011;67394;52.522;13.622;2023-02-03T17:24:06;8.48;;;2.45;;
78143;SDS011;67394;52.522;13.622;2023-02-03T17:26:33;16.38;;;3.45;;
78143;SDS011;67394;52.522;13.622;2023-02-03T17:29:00;11.15;;;2.58;;
78143;SDS011;67394;52.522;13.622;2023-02-03T17:31:26;15.20;;;4.13;;
78143;SDS011;67394;52.522;13.622;2023-02-03T17:33:53;12.07;;;3.47;;
78143;SDS011;67394;52.522;13.622;2023-02-03T17:36:20;9.63;;;3.10;;
78143;SDS011;67394;52.522;13.622;2023-02-03T17:38:48;20.30;;;4.03;;